Time;durP1;ratioP1;P1;durP2;ratioP2;P2;SDS_P1;SDS_P2;PMS_P1;PMS_P2;Temp;Humidity;BMP_temperature;BMP_pressure;BME280_temperature;BME280_humidity;BME280_pressure;Samples;Min_cycle;Max_cycle;Signal;HPM_P1;HPM_P2
2023/03/01 00:01:31;;;;;;;21.93;11.47;;;1.00;99.90;1.80;97584.00;;;;5090075;28;20430;-69
2023/03/01 00:04:20;;;;;;;11.23;10.03;;;1.00;99.90;1.70;97575.00;;;;5077368;28;20819;-69
2023/03/01 00:07:08;;;;;;;16.57;10.87;;;1.00;99.90;1.90;97573.00;;;;5082779;28;20446;-69
2023/03/01 00:09:57;;;;;;;17.10;10.07;;;1.00;99.90;1.80;97562.00;;;;5083066;28;20836;-69
2023/03/01 00:12:46;;;;;;;17.10;11.43;;;1.00;99.90;1.60;97554.00;;;;5089000;28;20414;-69
2023/03/01 00:15:41;;;;;;;18.27;10.20;;;0.90;99.90;1.90;97557.00;;;;5085153;28;20495;-71
2023/03/01 00:18:29;;;;;;;13.13;10.03;;;1.10;99.90;2.00;97542.00;;;;5091031;28;20472;-71
2023/03/01 00:21:19;;;;;;;13.63;9.97;;;0.90;99.90;2.10;97537.00;;;;5090607;28;20432;-71
2023/03/01 00:24:08;;;;;;;16.27;9.97;;;0.90;99.90;1.90;97543.00;;;;5089764;28;20538;-70
2023/03/01 00:26:57;;;;;;;17.53;11.40;;;1.00;99.90;1.90;97543.00;;;;5087063;28;20430;-70
2023/03/01 00:29:46;;;;;;;18.27;11.80;;;1.00;99.90;2.00;97531.00;;;;5091134;28;20418;-69
2023/03/01 00:32:36;;;;;;;16.80;10.83;;;0.90;99.90;2.10;97541.00;;;;5091213;28;20940;-70
2023/03/01 00:35:24;;;;;;;18.87;11.00;;;1.00;99.90;2.20;97543.00;;;;5084873;28;20862;-69
2023/03/01 00:38:13;;;;;;;16.40;11.07;;;1.00;99.90;1.80;97539.00;;;;5090203;28;20465;-70
2023/03/01 00:41:06;;;;;;;17.77;11.87;;;1.10;99.90;1.90;97535.00;;;;5087514;28;20405;-70
2023/03/01 00:43:55;;;;;;;13.00;10.23;;;1.00;99.90;2.00;97541.00;;;;5085151;28;20942;-70
2023/03/01 00:46:43;;;;;;;14.40;10.33;;;1.00;99.90;2.20;97533.00;;;;5083580;28;20436;-69
2023/03/01 00:49:33;;;;;;;12.30;9.03;;;1.00;99.90;2.20;97523.00;;;;5089983;28;20422;-70
2023/03/01 00:52:22;;;;;;;12.23;9.60;;;1.10;99.90;2.20;97522.00;;;;5083988;28;20414;-70
2023/03/01 00:55:12;;;;;;;16.83;10.47;;;1.10;99.90;2.10;97527.00;;;;5087594;28;20542;-69
2023/03/01 00:58:01;;;;;;;13.57;10.47;;;1.10;99.90;2.00;97522.00;;;;5087873;28;20418;-70
2023/03/01 01:00:49;;;;;;;12.37;9.03;;;1.00;99.90;1.90;97522.00;;;;5084414;28;20507;-70
2023/03/01 01:03:38;;;;;;;15.93;9.30;;;1.00;99.90;1.90;97527.00;;;;5079211;28;20453;-69
2023/03/01 01:06:31;;;;;;;17.30;10.80;;;1.00;99.90;1.90;97531.00;;;;5086152;28;20524;-69
2023/03/01 01:09:20;;;;;;;17.27;9.17;;;1.00;99.90;2.00;97515.00;;;;5085626;28;20794;-70
2023/03/01 01:12:09;;;;;;;12.87;9.13;;;1.00;99.90;2.10;97515.00;;;;5088225;28;20440;-69
2023/03/01 01:14:58;;;;;;;19.90;11.27;;;1.00;99.90;2.10;97523.00;;;;5087715;28;20469;-69
2023/03/01 01:17:47;;;;;;;13.73;10.07;;;1.00;99.90;2.10;97511.00;;;;5089418;28;20512;-69
2023/03/01 01:20:37;;;;;;;16.27;10.33;;;1.00;99.90;2.00;97518.00;;;;5082942;28;20509;-69
2023/03/01 01:23:27;;;;;;;14.77;9.77;;;1.00;99.90;1.70;97514.00;;;;5089287;28;20472;-70
2023/03/01 01:26:19;;;;;;;11.20;9.37;;;1.00;99.90;1.60;97513.00;;;;5086629;28;20994;-70
2023/03/01 01:29:08;;;;;;;12.93;8.47;;;0.90;99.90;1.80;97504.00;;;;5087896;28;20437;-70
2023/03/01 01:31:57;;;;;;;14.70;9.40;;;0.90;99.90;2.00;97499.00;;;;5089069;28;20426;-70
2023/03/01 01:34:46;;;;;;;14.53;10.53;;;0.90;99.90;2.10;97501.00;;;;5081583;28;20449;-69
2023/03/01 01:37:35;;;;;;;11.87;9.23;;;0.90;99.90;2.20;97511.00;;;;5089062;28;20492;-69
2023/03/01 01:40:25;;;;;;;15.13;9.67;;;1.00;99.90;1.90;97504.00;;;;5088883;28;20515;-69
2023/03/01 01:43:23;;;;;;;17.20;9.77;;;1.00;99.90;2.00;97496.00;;;;5088575;28;20523;-69
2023/03/01 01:46:24;;;;;;;11.03;8.03;;;1.00;99.90;1.90;97495.00;;;;5087081;28;20514;-69
2023/03/01 01:49:33;;;;;;;14.13;8.83;;;1.00;99.90;1.70;97495.00;;;;5087551;28;20417;-70
2023/03/01 01:52:28;;;;;;;16.57;10.93;;;1.00;99.90;1.70;97494.00;;;;5087351;28;20418;-71
2023/03/01 01:55:21;;;;;;;12.37;9.97;;;0.90;99.90;1.60;97488.00;;;;5088423;28;20449;-69
2023/03/01 01:58:15;;;;;;;14.33;9.17;;;0.90;99.90;1.50;97484.00;;;;5088399;28;20413;-69
2023/03/01 02:01:05;;;;;;;15.97;10.53;;;0.80;99.90;1.50;97478.00;;;;5087372;28;20852;-69
2023/03/01 02:03:54;;;;;;;14.43;8.87;;;0.80;99.90;1.70;97477.00;;;;5086341;28;20541;-69
2023/03/01 02:06:50;;;;;;;10.57;9.07;;;0.80;99.90;2.00;97481.00;;;;5087192;28;20410;-69
2023/03/01 02:09:39;;;;;;;16.17;10.33;;;0.80;99.90;1.90;97475.00;;;;5081821;28;20814;-69
2023/03/01 02:12:28;;;;;;;14.63;9.23;;;0.90;99.90;1.80;97473.00;;;;5080235;28;20475;-69
2023/03/01 02:15:19;;;;;;;17.57;11.60;;;0.90;99.90;1.80;97460.00;;;;5085604;28;20453;-70
2023/03/01 02:18:09;;;;;;;15.50;10.60;;;0.90;99.90;2.00;97463.00;;;;5087336;28;20527;-69
2023/03/01 02:21:13;;;;;;;14.30;9.83;;;0.90;99.90;2.10;97477.00;;;;5085422;28;20429;-69
2023/03/01 02:24:16;;;;;;;14.03;9.00;;;0.90;99.90;2.10;97466.00;;;;5084413;28;20491;-69
2023/03/01 02:27:08;;;;;;;14.47;9.50;;;1.00;99.90;1.80;97456.00;;;;5086143;28;20432;-69
2023/03/01 02:29:58;;;;;;;14.33;10.07;;;1.00;99.90;1.80;97458.00;;;;5084673;28;20413;-69
2023/03/01 02:32:47;;;;;;;12.97;9.17;;;0.90;99.90;1.60;97449.00;;;;5088515;28;20483;-69
2023/03/01 02:35:39;;;;;;;15.63;10.07;;;0.90;99.90;1.80;97452.00;;;;5085024;28;20456;-69
2023/03/01 02:38:29;;;;;;;14.83;10.00;;;0.90;99.90;1.80;97453.00;;;;5088369;28;20422;-69
2023/03/01 02:41:20;;;;;;;16.40;10.40;;;0.90;99.90;2.00;97454.00;;;;5087920;28;20422;-69
2023/03/01 02:44:09;;;;;;;12.77;8.50;;;0.90;99.90;2.00;97451.00;;;;5087990;28;21016;-69
2023/03/01 02:47:04;;;;;;;11.93;8.47;;;0.90;99.90;1.70;97442.00;;;;5087729;28;20429;-69
2023/03/01 02:49:53;;;;;;;13.20;8.03;;;0.90;99.90;1.70;97443.00;;;;5088314;28;20425;-69
2023/03/01 02:52:49;;;;;;;12.70;9.27;;;0.80;99.90;1.70;97444.00;;;;5088825;28;20424;-69
2023/03/01 02:55:38;;;;;;;12.10;9.40;;;0.80;99.90;1.80;97438.00;;;;5083053;28;20840;-69
2023/03/01 02:58:27;;;;;;;13.90;9.80;;;0.80;99.90;1.90;97444.00;;;;5086947;28;20429;-69
2023/03/01 03:01:15;;;;;;;16.67;9.83;;;0.90;99.90;1.90;97447.00;;;;5087395;28;20468;-69
2023/03/01 03:04:09;;;;;;;16.77;10.83;;;0.90;99.90;1.90;97443.00;;;;5088124;28;20814;-69
2023/03/01 03:06:58;;;;;;;11.87;9.43;;;0.90;99.90;2.00;97450.00;;;;5084881;28;20410;-69
2023/03/01 03:09:47;;;;;;;15.53;9.80;;;0.90;99.90;2.00;97438.00;;;;5087975;28;20414;-69
2023/03/01 03:12:35;;;;;;;11.93;9.50;;;0.90;99.90;2.10;97446.00;;;;5082272;28;20510;-70
2023/03/01 03:15:25;;;;;;;15.87;11.00;;;0.90;99.90;2.20;97452.00;;;;5087981;28;20869;-69
2023/03/01 03:18:18;;;;;;;15.23;11.00;;;1.00;99.90;2.20;97448.00;;;;5084893;28;20495;-70
2023/03/01 03:21:12;;;;;;;14.73;9.80;;;1.00;99.90;2.20;97439.00;;;;5088569;28;20464;-69
2023/03/01 03:24:01;;;;;;;11.00;8.77;;;1.10;99.90;2.20;97441.00;;;;5080772;28;20903;-69
2023/03/01 03:26:50;;;;;;;13.27;9.43;;;1.10;99.90;2.20;97435.00;;;;5082211;28;20496;-69
2023/03/01 03:29:38;;;;;;;15.27;9.57;;;1.10;99.90;2.10;97435.00;;;;5083052;28;20495;-69
2023/03/01 03:32:27;;;;;;;12.73;9.63;;;1.10;99.90;2.10;97437.00;;;;5088109;28;20826;-69
2023/03/01 03:35:16;;;;;;;11.70;9.33;;;1.10;99.90;2.20;97445.00;;;;5084259;28;20441;-69
2023/03/01 03:38:15;;;;;;;15.87;9.57;;;1.20;99.90;2.10;97443.00;;;;5086251;28;20467;-69
2023/03/01 03:41:07;;;;;;;15.03;8.97;;;1.10;99.90;2.00;97444.00;;;;5088835;28;20465;-70
2023/03/01 03:43:56;;;;;;;11.53;9.20;;;1.10;99.90;2.30;97438.00;;;;5090189;28;20449;-69
2023/03/01 03:46:44;;;;;;;16.30;8.80;;;1.10;99.90;2.30;97451.00;;;;5086393;28;20521;-69
2023/03/01 03:49:34;;;;;;;14.20;9.97;;;1.20;99.90;2.10;97442.00;;;;5091039;28;20830;-69
2023/03/01 03:52:23;;;;;;;15.60;10.63;;;1.20;99.90;2.10;97439.00;;;;5087207;28;20459;-70
2023/03/01 03:55:14;;;;;;;11.87;9.50;;;1.20;99.90;1.90;97441.00;;;;5089340;28;20487;-69
2023/03/01 03:58:06;;;;;;;12.77;9.63;;;1.10;99.90;1.90;97452.00;;;;5091066;28;20904;-70
2023/03/01 04:00:57;;;;;;;14.83;9.80;;;1.10;99.90;1.80;97446.00;;;;5081743;28;20528;-69
2023/03/01 04:03:47;;;;;;;12.00;9.63;;;1.10;99.90;1.90;97453.00;;;;5086426;28;20446;-69
2023/03/01 04:06:35;;;;;;;13.73;9.37;;;1.00;99.90;1.90;97459.00;;;;5088460;28;20424;-69
2023/03/01 04:09:24;;;;;;;12.80;9.87;;;1.00;99.90;1.80;97460.00;;;;5088846;28;20498;-69
2023/03/01 04:12:14;;;;;;;19.70;10.97;;;1.00;99.90;1.90;97452.00;;;;5091451;28;20427;-69
2023/03/01 04:15:13;;;;;;;14.73;9.13;;;1.00;99.90;2.00;97450.00;;;;5077868;28;20441;-69
2023/03/01 04:18:02;;;;;;;16.63;9.80;;;1.00;99.90;1.90;97456.00;;;;5089032;28;20479;-69
2023/03/01 04:20:55;;;;;;;14.77;10.00;;;1.00;99.90;1.90;97454.00;;;;5084520;28;20830;-69
2023/03/01 04:23:43;;;;;;;12.20;9.13;;;1.00;99.90;1.80;97454.00;;;;5085246;28;21004;-69
2023/03/01 04:26:32;;;;;;;14.07;9.83;;;1.00;99.90;1.80;97461.00;;;;5087325;28;20495;-69
2023/03/01 04:29:22;;;;;;;12.40;8.53;;;0.90;99.90;1.80;97459.00;;;;5088976;28;20414;-69
2023/03/01 04:32:13;;;;;;;14.30;9.53;;;0.90;99.90;1.60;97459.00;;;;5087150;28;20441;-69
2023/03/01 04:35:01;;;;;;;14.20;9.50;;;0.80;99.90;1.60;97449.00;;;;5085638;28;20438;-69
2023/03/01 04:37:51;;;;;;;12.53;8.37;;;0.90;99.90;1.70;97451.00;;;;5090469;28;20437;-69
2023/03/01 04:40:42;;;;;;;10.37;8.27;;;0.90;99.90;1.70;97453.00;;;;5089858;28;20477;-69
2023/03/01 04:43:31;;;;;;;14.37;9.03;;;0.90;99.90;1.70;97457.00;;;;5086280;28;20422;-69
2023/03/01 04:46:22;;;;;;;16.00;9.40;;;0.80;99.90;1.70;97458.00;;;;5088125;28;20433;-69
2023/03/01 04:49:11;;;;;;;17.63;11.10;;;0.90;99.90;1.80;97453.00;;;;5081683;28;20434;-69
2023/03/01 04:52:01;;;;;;;16.80;9.80;;;0.90;99.90;1.70;97451.00;;;;5084961;28;20520;-69
2023/03/01 04:54:50;;;;;;;9.90;8.90;;;0.90;99.90;1.60;97447.00;;;;5084673;28;20457;-69
2023/03/01 04:57:39;;;;;;;12.33;8.53;;;0.80;99.90;1.50;97450.00;;;;5084089;28;20982;-69
2023/03/01 05:00:28;;;;;;;15.43;9.47;;;0.80;99.90;1.40;97442.00;;;;5089773;28;20508;-69
2023/03/01 05:03:18;;;;;;;11.53;7.70;;;0.70;99.90;1.40;97442.00;;;;5081355;28;20417;-69
2023/03/01 05:06:07;;;;;;;14.00;8.40;;;0.70;99.90;1.60;97435.00;;;;5082489;28;20942;-69
2023/03/01 05:08:56;;;;;;;9.20;8.10;;;0.70;99.90;1.80;97438.00;;;;5084083;28;20462;-69
2023/03/01 05:11:44;;;;;;;13.87;8.93;;;0.80;99.90;1.80;97443.00;;;;5079028;28;20452;-69
2023/03/01 05:14:33;;;;;;;12.53;7.93;;;0.80;99.90;1.90;97433.00;;;;5087192;28;20487;-70
2023/03/01 05:17:22;;;;;;;15.10;9.67;;;0.80;99.90;2.00;97438.00;;;;5088260;28;20490;-69
2023/03/01 05:20:13;;;;;;;12.90;10.47;;;0.80;99.90;2.10;97433.00;;;;5087999;28;20431;-69
2023/03/01 05:23:04;;;;;;;14.97;10.13;;;0.90;99.90;2.10;97442.00;;;;5089094;28;20426;-69
2023/03/01 05:25:54;;;;;;;13.70;7.93;;;0.90;99.90;1.80;97440.00;;;;5089906;28;20410;-70
2023/03/01 05:28:43;;;;;;;12.47;8.90;;;0.90;99.90;1.70;97437.00;;;;5088494;28;20433;-69
2023/03/01 05:31:32;;;;;;;15.43;9.13;;;0.90;99.90;1.60;97441.00;;;;5093489;28;20949;-69
2023/03/01 05:34:25;;;;;;;10.13;8.87;;;0.90;99.90;1.60;97423.00;;;;5088986;28;20461;-69
2023/03/01 05:37:15;;;;;;;13.63;9.20;;;0.90;99.90;1.50;97432.00;;;;5087583;28;20426;-69
2023/03/01 05:40:05;;;;;;;12.07;8.30;;;0.80;99.90;1.50;97427.00;;;;5083634;28;20518;-68
2023/03/01 05:42:56;;;;;;;13.93;9.40;;;0.80;99.90;1.40;97430.00;;;;5087952;28;20528;-69
2023/03/01 05:45:46;;;;;;;13.67;8.63;;;0.80;99.90;1.40;97438.00;;;;5090668;28;21186;-70
2023/03/01 05:48:35;;;;;;;18.00;9.60;;;0.70;99.90;1.50;97425.00;;;;5084552;28;20437;-69
2023/03/01 05:51:23;;;;;;;11.83;9.17;;;0.70;99.90;1.50;97437.00;;;;5085253;28;20437;-69
2023/03/01 05:54:14;;;;;;;13.73;9.43;;;0.60;99.90;1.30;97440.00;;;;5087772;28;20497;-69
2023/03/01 05:57:02;;;;;;;14.43;9.97;;;0.70;99.90;1.40;97443.00;;;;5086322;28;20422;-69
2023/03/01 05:59:51;;;;;;;12.43;9.73;;;0.70;99.90;1.70;97448.00;;;;5081009;28;20419;-69
2023/03/01 06:02:40;;;;;;;16.03;10.10;;;0.70;99.90;1.80;97458.00;;;;5084612;28;20536;-69
2023/03/01 06:05:29;;;;;;;15.27;9.07;;;0.70;99.90;1.80;97458.00;;;;5077913;28;20515;-69
2023/03/01 06:08:20;;;;;;;14.30;8.60;;;0.80;99.90;1.80;97451.00;;;;5083580;28;20429;-69
2023/03/01 06:11:10;;;;;;;13.57;8.63;;;0.80;99.90;1.80;97459.00;;;;5084492;28;20457;-69
2023/03/01 06:13:58;;;;;;;10.73;8.27;;;0.80;99.90;1.90;97457.00;;;;5085928;28;20495;-69
2023/03/01 06:16:47;;;;;;;14.70;10.57;;;0.90;99.90;1.90;97462.00;;;;5085440;28;20414;-69
2023/03/01 06:19:36;;;;;;;13.40;10.40;;;0.90;99.90;2.10;97466.00;;;;5088269;28;20948;-69
2023/03/01 06:22:25;;;;;;;19.90;9.47;;;0.90;99.90;2.10;97475.00;;;;5088277;28;20489;-69
2023/03/01 06:25:17;;;;;;;12.27;9.60;;;1.00;99.90;2.20;97472.00;;;;5085833;28;21212;-69
2023/03/01 06:28:07;;;;;;;16.93;10.80;;;1.10;99.90;2.40;97462.00;;;;5086589;28;20440;-70
2023/03/01 06:30:56;;;;;;;13.83;10.33;;;1.10;99.90;2.30;97461.00;;;;5086738;28;20438;-69
2023/03/01 06:33:45;;;;;;;17.10;10.50;;;1.10;99.90;2.20;97471.00;;;;5087791;28;21044;-69
2023/03/01 06:36:34;;;;;;;13.73;9.20;;;1.20;99.90;2.20;97478.00;;;;5081520;28;20910;-69
2023/03/01 06:39:22;;;;;;;13.47;8.50;;;1.30;99.90;2.20;97471.00;;;;5083748;28;20425;-69
2023/03/01 06:42:11;;;;;;;15.23;9.90;;;1.20;99.90;2.10;97465.00;;;;5087910;28;21619;-69
2023/03/01 06:45:01;;;;;;;14.83;10.50;;;1.20;99.90;2.00;97471.00;;;;5088334;28;20450;-69
2023/03/01 06:47:50;;;;;;;17.40;11.17;;;1.20;99.90;2.00;97469.00;;;;5084350;28;20426;-69
2023/03/01 06:50:39;;;;;;;14.27;10.60;;;1.20;99.90;2.00;97466.00;;;;5088371;28;20446;-70
2023/03/01 06:53:28;;;;;;;15.13;11.43;;;1.20;99.90;2.00;97475.00;;;;5085422;28;20507;-69
2023/03/01 06:56:16;;;;;;;17.33;11.87;;;1.20;99.90;1.90;97471.00;;;;5081676;28;20437;-70
2023/03/01 06:59:06;;;;;;;18.20;12.07;;;1.10;99.90;2.00;97476.00;;;;5076714;28;20969;-70
2023/03/01 07:01:56;;;;;;;16.27;10.63;;;1.10;99.90;2.00;97485.00;;;;5081105;28;20502;-69
2023/03/01 07:04:44;;;;;;;15.20;10.00;;;1.10;99.90;2.00;97484.00;;;;5075724;28;20458;-70
2023/03/01 07:07:33;;;;;;;16.87;9.10;;;1.20;99.90;2.10;97486.00;;;;5088532;28;20428;-69
2023/03/01 07:10:22;;;;;;;17.53;8.87;;;1.20;99.90;2.30;97492.00;;;;5078624;28;20483;-69
2023/03/01 07:13:11;;;;;;;17.30;11.20;;;1.20;99.90;2.40;97491.00;;;;5089137;28;20423;-69
2023/03/01 07:15:59;;;;;;;15.50;10.23;;;1.30;99.90;2.30;97492.00;;;;5084697;28;20509;-69
2023/03/01 07:18:49;;;;;;;16.50;10.10;;;1.30;99.90;2.50;97510.00;;;;5086556;28;20448;-69
2023/03/01 07:21:38;;;;;;;10.83;8.27;;;1.30;99.90;2.50;97509.00;;;;5087239;28;21369;-69
2023/03/01 07:24:27;;;;;;;14.40;9.47;;;1.30;99.90;2.70;97515.00;;;;5083574;28;20491;-69
2023/03/01 07:27:16;;;;;;;15.43;10.40;;;1.40;99.90;2.60;97517.00;;;;5088949;28;20425;-69
2023/03/01 07:30:06;;;;;;;16.90;11.47;;;1.50;99.90;2.60;97513.00;;;;5088510;28;20506;-69
2023/03/01 07:32:55;;;;;;;15.13;11.33;;;1.50;99.90;2.80;97524.00;;;;5090880;28;20425;-70
2023/03/01 07:35:45;;;;;;;17.87;10.27;;;1.70;99.90;3.00;97519.00;;;;5082175;28;20422;-69
2023/03/01 07:38:34;;;;;;;14.90;9.83;;;1.70;99.90;3.00;97521.00;;;;5087003;28;21021;-69
2023/03/01 07:41:23;;;;;;;19.17;10.70;;;1.70;99.90;3.00;97522.00;;;;5091124;28;20409;-70
2023/03/01 07:44:11;;;;;;;13.83;9.63;;;1.80;99.90;2.80;97529.00;;;;5086908;28;20454;-69
2023/03/01 07:47:00;;;;;;;18.97;10.70;;;1.90;99.90;2.90;97534.00;;;;5083243;28;20421;-70
2023/03/01 07:49:49;;;;;;;26.70;12.03;;;1.80;99.90;3.10;97520.00;;;;5086764;28;20417;-70
2023/03/01 07:52:39;;;;;;;17.73;11.07;;;1.90;99.90;3.30;97520.00;;;;5090905;28;21031;-69
2023/03/01 07:55:27;;;;;;;20.93;14.10;;;1.90;99.90;3.30;97517.00;;;;5082332;28;20488;-69
2023/03/01 07:58:16;;;;;;;24.27;13.97;;;2.00;99.90;3.40;97520.00;;;;5088328;28;20554;-69
2023/03/01 08:01:07;;;;;;;19.10;12.90;;;2.00;99.90;3.50;97520.00;;;;5085976;28;20422;-69
2023/03/01 08:03:56;;;;;;;24.23;12.80;;;2.10;99.90;3.60;97526.00;;;;5090532;28;20569;-69
2023/03/01 08:06:44;;;;;;;13.73;11.47;;;2.20;99.90;3.40;97516.00;;;;5091208;28;20466;-69
2023/03/01 08:09:36;;;;;;;17.27;10.60;;;2.30;99.90;3.50;97519.00;;;;5090294;28;20413;-70
2023/03/01 08:12:27;;;;;;;19.30;12.97;;;2.30;99.90;3.50;97523.00;;;;5089908;28;20495;-69
2023/03/01 08:15:16;;;;;;;16.83;12.67;;;2.30;99.90;3.50;97511.00;;;;5083015;28;20438;-70
2023/03/01 08:18:06;;;;;;;20.83;13.13;;;2.40;99.90;3.70;97526.00;;;;5091311;28;20445;-69
2023/03/01 08:20:55;;;;;;;22.57;12.87;;;2.50;99.90;3.80;97535.00;;;;5087209;28;20446;-69
2023/03/01 08:23:44;;;;;;;17.83;12.27;;;2.50;99.90;3.80;97525.00;;;;5085023;28;20469;-69
2023/03/01 08:26:35;;;;;;;20.63;13.27;;;2.60;99.90;3.80;97517.00;;;;5081554;28;20460;-69
2023/03/01 08:29:25;;;;;;;18.73;12.63;;;2.60;99.90;4.10;97523.00;;;;5089573;28;20475;-69
2023/03/01 08:32:13;;;;;;;22.73;12.83;;;2.70;99.90;4.20;97524.00;;;;5090598;28;20426;-69
2023/03/01 08:35:02;;;;;;;23.67;13.27;;;2.70;99.90;4.20;97524.00;;;;5082834;28;21005;-69
2023/03/01 08:37:51;;;;;;;22.07;12.33;;;2.80;99.90;4.50;97514.00;;;;5082768;28;20429;-69
2023/03/01 08:40:39;;;;;;;18.67;12.60;;;2.90;99.90;4.50;97519.00;;;;5094621;28;20947;-69
2023/03/01 08:43:30;;;;;;;16.17;10.53;;;3.00;99.90;4.30;97517.00;;;;5089623;28;20480;-69
2023/03/01 08:46:18;;;;;;;25.00;12.30;;;3.00;99.90;4.50;97512.00;;;;5087982;28;20418;-69
2023/03/01 08:49:08;;;;;;;20.50;13.87;;;3.10;99.90;4.50;97505.00;;;;5087045;28;20413;-69
2023/03/01 08:51:57;;;;;;;15.93;11.73;;;3.20;99.90;4.70;97516.00;;;;5086726;28;20464;-68
2023/03/01 08:54:46;;;;;;;13.43;9.80;;;3.20;99.90;4.90;97509.00;;;;5076112;28;20438;-69
2023/03/01 08:57:34;;;;;;;18.43;11.60;;;3.30;99.90;4.90;97513.00;;;;5090684;28;20925;-69
2023/03/01 09:00:25;;;;;;;18.27;10.90;;;3.40;99.90;4.90;97499.00;;;;5086777;28;20422;-69
2023/03/01 09:03:13;;;;;;;17.30;11.67;;;3.50;99.90;5.10;97505.00;;;;5090976;28;20534;-69
2023/03/01 09:06:04;;;;;;;14.63;11.13;;;3.50;99.90;5.00;97493.00;;;;5089911;28;20479;-69
2023/03/01 09:08:52;;;;;;;15.37;10.53;;;3.50;99.90;5.20;97486.00;;;;5079460;28;20441;-69
2023/03/01 09:11:41;;;;;;;14.37;10.53;;;3.70;99.90;4.90;97477.00;;;;5087387;28;20421;-69
2023/03/01 09:14:30;;;;;;;15.37;9.53;;;3.70;99.90;4.50;97470.00;;;;5073851;28;20454;-69
2023/03/01 09:17:21;;;;;;;18.33;11.90;;;3.60;99.90;5.10;97472.00;;;;5084182;28;20418;-69
2023/03/01 09:20:11;;;;;;;15.80;10.90;;;3.70;99.90;5.50;97480.00;;;;5080584;28;20464;-69
2023/03/01 09:23:00;;;;;;;14.47;10.20;;;3.80;99.90;5.50;97467.00;;;;5083503;28;20580;-69
2023/03/01 09:25:49;;;;;;;19.23;12.13;;;3.90;99.90;5.40;97469.00;;;;5085209;28;20425;-69
2023/03/01 09:28:38;;;;;;;24.03;12.50;;;4.00;99.90;5.60;97469.00;;;;5081487;28;20476;-69
2023/03/01 09:31:27;;;;;;;15.40;11.60;;;4.10;99.90;5.50;97464.00;;;;5080745;28;20778;-69
2023/03/01 09:34:22;;;;;;;14.57;10.40;;;5.10;99.90;5.60;97463.00;;;;5078670;28;20878;-69
2023/03/01 09:37:11;;;;;;;16.57;11.23;;;4.20;99.90;5.80;97446.00;;;;5088325;28;20203;-69
2023/03/01 09:40:00;;;;;;;14.93;11.27;;;4.20;99.90;5.70;97450.00;;;;5088114;28;20199;-69
2023/03/01 09:42:54;;;;;;;17.60;11.77;;;4.30;99.90;5.70;97439.00;;;;5076144;28;20989;-69
2023/03/01 09:45:47;;;;;;;19.83;12.30;;;4.30;99.90;5.80;97442.00;;;;5072802;28;20211;-69
2023/03/01 09:48:44;;;;;;;16.30;12.13;;;4.40;99.90;5.90;97445.00;;;;5085501;28;20203;-69
2023/03/01 09:51:36;;;;;;;19.80;12.47;;;4.40;99.90;5.60;97433.00;;;;5078632;28;20200;-71
2023/03/01 09:54:25;;;;;;;14.77;10.47;;;4.40;99.90;5.40;97440.00;;;;5076654;28;20743;-69
2023/03/01 09:57:20;;;;;;;17.20;11.87;;;4.40;99.90;5.20;97434.00;;;;5077849;28;20196;-69
2023/03/01 10:00:23;;;;;;;17.13;11.70;;;4.30;99.90;5.50;97442.00;;;;5086953;28;20674;-69
2023/03/01 10:03:22;;;;;;;17.87;12.00;;;4.30;99.90;5.80;97435.00;;;;5089445;28;20457;-69
2023/03/01 10:06:17;;;;;;;19.03;12.23;;;4.30;99.90;5.70;97442.00;;;;5087663;28;20278;-69
2023/03/01 10:09:22;;;;;;;20.93;13.17;;;4.30;99.90;5.80;97440.00;;;;5088016;28;20203;-69
2023/03/01 10:12:16;;;;;;;16.53;12.23;;;4.40;99.90;5.50;97427.00;;;;5088028;28;20682;-69
2023/03/01 10:15:12;;;;;;;26.00;13.03;;;4.40;99.90;5.60;97425.00;;;;5087788;28;20215;-69
2023/03/01 10:18:07;;;;;;;17.23;12.53;;;4.30;99.90;5.10;97418.00;;;;5086285;28;20215;-69
2023/03/01 10:21:01;;;;;;;17.03;11.77;;;4.30;99.90;5.20;97430.00;;;;5080960;28;20429;-69
2023/03/01 10:23:53;;;;;;;16.33;11.80;;;4.20;99.90;5.40;97423.00;;;;5079981;28;20465;-69
2023/03/01 10:26:52;;;;;;;22.30;12.93;;;4.20;99.90;5.40;97426.00;;;;5088186;28;20203;-69
2023/03/01 10:29:50;;;;;;;21.33;12.87;;;4.20;99.90;5.00;97433.00;;;;5083015;28;20195;-69
2023/03/01 10:32:39;;;;;;;17.27;12.60;;;4.20;99.90;4.90;97414.00;;;;5081478;28;20782;-70
2023/03/01 10:35:31;;;;;;;18.43;12.47;;;4.10;99.90;4.90;97416.00;;;;5088032;28;20563;-69
2023/03/01 10:38:21;;;;;;;23.90;13.27;;;4.10;99.90;5.00;97416.00;;;;5087397;28;20744;-69
2023/03/01 10:41:10;;;;;;;23.17;12.90;;;4.00;99.90;4.80;97416.00;;;;5087813;28;20203;-69
2023/03/01 10:44:00;;;;;;;21.40;11.63;;;4.00;99.90;5.30;97442.00;;;;5088344;28;20468;-69
2023/03/01 10:47:01;;;;;;;19.93;12.80;;;4.00;99.90;5.50;97450.00;;;;5083105;28;20227;-69
2023/03/01 10:50:00;;;;;;;23.87;13.80;;;4.00;99.90;5.20;97449.00;;;;5085831;28;20196;-70
2023/03/01 10:53:00;;;;;;;17.33;11.70;;;4.10;99.90;4.70;97460.00;;;;5086722;28;20199;-69
2023/03/01 10:55:58;;;;;;;18.20;12.80;;;4.00;99.90;4.90;97469.00;;;;5092444;28;20795;-69
2023/03/01 10:59:02;;;;;;;19.93;14.07;;;3.90;99.90;5.10;97477.00;;;;5092082;28;20202;-69
2023/03/01 11:02:17;;;;;;;26.87;13.97;;;4.00;99.90;5.50;97476.00;;;;5092563;28;20417;-69
2023/03/01 11:05:23;;;;;;;17.30;11.77;;;4.00;99.90;5.40;97486.00;;;;5090138;28;20982;-69
2023/03/01 11:08:12;;;;;;;13.67;11.60;;;4.10;99.90;5.60;97480.00;;;;5090772;28;20425;-69
2023/03/01 11:11:18;;;;;;;19.77;11.57;;;4.10;99.90;5.80;97475.00;;;;5088709;28;20198;-69
2023/03/01 11:14:15;;;;;;;17.30;12.57;;;4.20;99.90;5.00;97460.00;;;;5091032;28;20235;-69
2023/03/01 11:17:22;;;;;;;14.07;11.53;;;4.30;99.90;4.60;97460.00;;;;5090235;28;20425;-78
2023/03/01 11:20:31;;;;;;;13.83;9.80;;;4.10;99.90;4.50;97452.00;;;;5081437;28;21066;-72
2023/03/01 11:23:21;;;;;;;17.97;12.47;;;4.00;99.90;4.80;97455.00;;;;5079670;28;20519;-69
2023/03/01 11:26:10;;;;;;;16.20;12.57;;;3.90;99.90;5.00;97453.00;;;;5083634;28;20437;-69
2023/03/01 11:29:08;;;;;;;23.27;11.83;;;4.00;99.90;5.40;97466.00;;;;5078250;28;20856;-69
2023/03/01 11:32:01;;;;;;;14.30;11.07;;;4.00;99.90;5.40;97459.00;;;;5084433;28;20488;-69
2023/03/01 11:34:59;;;;;;;14.10;10.27;;;4.10;99.90;5.10;97456.00;;;;5085719;28;21052;-69
2023/03/01 11:38:04;;;;;;;24.03;11.43;;;4.20;99.90;5.70;97440.00;;;;5089860;28;20427;-69
2023/03/01 11:40:59;;;;;;;16.70;12.17;;;4.20;99.90;5.50;97443.00;;;;5081355;28;20326;-69
2023/03/01 11:43:54;;;;;;;19.73;10.67;;;4.30;99.90;5.30;97442.00;;;;5073922;28;20307;-69
2023/03/01 11:47:15;;;;;;;16.27;11.67;;;4.30;99.90;5.60;97418.00;;;;5090928;28;20421;-69
2023/03/01 11:50:20;;;;;;;15.60;10.47;;;4.30;99.90;5.70;97420.00;;;;5087624;28;20199;-69
2023/03/01 11:53:40;;;;;;;12.70;10.37;;;4.40;99.90;5.90;97409.00;;;;5088542;28;20227;-69
2023/03/01 11:56:35;;;;;;;23.77;10.83;;;4.50;99.90;6.30;97418.00;;;;5085962;28;20452;-69
2023/03/01 12:00:10;;;;;;;19.53;12.13;;;4.60;99.90;6.40;97409.00;;;;5081514;28;20710;-69
2023/03/01 12:03:34;;;;;;;13.37;9.93;;;4.80;99.90;6.60;97421.00;;;;5079485;28;20240;-69
2023/03/01 12:06:52;;;;;;;19.37;11.40;;;4.90;99.90;6.70;97402.00;;;;5082787;28;20680;-69
2023/03/01 12:10:03;;;;;;;14.80;10.93;;;5.10;99.90;6.80;97390.00;;;;5085042;28;20222;-69
2023/03/01 12:13:28;;;;;;;17.13;11.20;;;5.20;99.90;6.40;97392.00;;;;5084630;28;20675;-69
2023/03/01 12:16:33;;;;;;;17.90;11.43;;;5.20;99.90;7.00;97389.00;;;;5087349;28;20200;-69
2023/03/01 12:19:57;;;;;;;18.83;11.93;;;5.30;99.90;7.20;97380.00;;;;5082809;28;20204;-68
2023/03/01 12:23:07;;;;;;;17.30;11.90;;;5.40;99.90;7.20;97383.00;;;;5079794;28;20823;-68
2023/03/01 12:26:19;;;;;;;18.10;11.53;;;5.60;99.90;7.30;97376.00;;;;5089032;28;20203;-68
2023/03/01 12:29:24;;;;;;;20.30;12.47;;;5.70;99.90;6.60;97347.00;;;;5083630;28;20204;-68
2023/03/01 12:32:35;;;;;;;19.07;12.17;;;5.70;99.90;7.10;97340.00;;;;5082940;28;20586;-68
2023/03/01 12:35:51;;;;;;;19.47;13.00;;;5.80;99.90;7.60;97342.00;;;;5087371;28;20616;-68
2023/03/01 12:38:43;;;;;;;24.30;12.63;;;5.90;99.90;8.00;97351.00;;;;5090079;28;20200;-68
2023/03/01 12:41:47;;;;;;;17.53;12.57;;;6.10;99.90;8.00;97336.00;;;;5082218;28;20258;-69
2023/03/01 12:44:58;;;;;;;30.50;14.43;;;6.40;99.90;8.20;97333.00;;;;5082808;28;20214;-68
2023/03/01 12:48:09;;;;;;;26.70;13.77;;;6.50;99.90;8.20;97334.00;;;;5081746;28;20292;-68
2023/03/01 12:51:05;;;;;;;19.53;12.97;;;6.60;99.90;8.20;97330.00;;;;5081127;28;20343;-68